aviador You're here:

LFLU Decoded Metar

VALENCE in FRANCE
Report Time2017-09-23 09:00:00
UTC Time2017-09-23 09:14:14
Flight Rules vfr VFR
WindVRB at 02 kt
Visibility9999 m
Phenomena:N/A
Clouds:N/A
Expected CloudBase > 2,400 ft AGL from Temp-Dew spread
CeilingNone
Temp17°C
Dew Point11°C (68% RH)
AAT16.6°C
QNH1022 hPa
Raw Report
METAR LFLU 230900Z AUTO VRB02KT CAVOK 17/11 Q1022=

Extra information for LFLU:More info

Metar Taf Metar & Taf Last 4 Metars F.Rules Stats Wind Profile Meteogram Temp Stats Airport Information Weather charts Add Link Nearby VenuesMetar ALERT Operation Metar Decoded Social comments